Time;durP1;ratioP1;P1;durP2;ratioP2;P2;SDS_P1;SDS_P2;PMS_P1;PMS_P2;Temp;Humidity;BMP_temperature;BMP_pressure;BME280_temperature;BME280_humidity;BME280_pressure;Samples;Min_cycle;Max_cycle;Signal;HPM_P1;HPM_P2
2023/01/09 03:00:55;;;;;;;9.60;9.10;;;7.70;99.90;;;;;;5873634;23;20181;-79
2023/01/09 03:03:31;;;;;;;10.07;9.37;;;7.70;99.90;;;;;;4911997;29;20542;-81
2023/01/09 03:06:06;;;;;;;9.90;9.40;;;7.70;99.90;;;;;;4911448;29;20204;-80
2023/01/09 03:08:39;;;;;;;10.90;10.00;;;7.60;99.90;;;;;;4905399;29;20593;-78
2023/01/09 03:11:07;;;;;;;10.00;9.50;;;7.70;99.90;;;;;;4908272;29;20276;-79
2023/01/09 03:13:42;;;;;;;10.00;9.50;;;7.70;99.90;;;;;;4916195;29;20228;-82
2023/01/09 03:16:13;;;;;;;9.70;9.20;;;7.60;99.90;;;;;;4913621;29;20226;-80
2023/01/09 03:18:42;;;;;;;9.80;9.30;;;7.60;99.90;;;;;;4910374;29;20275;-79
2023/01/09 03:21:11;;;;;;;9.60;9.10;;;7.60;99.90;;;;;;4908192;29;20241;-80
2023/01/09 03:23:48;;;;;;;10.00;9.50;;;7.60;99.90;;;;;;4911340;29;20211;-82
2023/01/09 03:26:15;;;;;;;9.70;9.20;;;7.50;99.90;;;;;;4913552;29;20564;-81
2023/01/09 03:28:43;;;;;;;9.87;9.20;;;7.50;99.90;;;;;;4913836;29;20199;-81
2023/01/09 03:31:11;;;;;;;9.67;9.17;;;7.50;99.90;;;;;;4912596;29;20231;-80
2023/01/09 03:33:38;;;;;;;9.67;9.17;;;7.50;99.90;;;;;;4913800;29;20200;-80
2023/01/09 03:36:06;;;;;;;9.90;9.40;;;7.40;99.90;;;;;;4914821;29;20215;-79
2023/01/09 03:38:33;;;;;;;9.80;9.20;;;7.40;99.90;;;;;;4910220;29;20204;-81
2023/01/09 03:41:00;;;;;;;9.73;9.10;;;7.40;99.90;;;;;;4907175;29;20232;-81
2023/01/09 03:43:27;;;;;;;9.80;9.30;;;7.40;99.90;;;;;;4926168;29;20229;-78
2023/01/09 03:45:54;;;;;;;9.70;9.20;;;7.40;99.90;;;;;;4909384;29;20219;-78
2023/01/09 03:48:22;;;;;;;10.00;9.50;;;7.30;99.90;;;;;;4911746;29;20632;-77
2023/01/09 03:50:49;;;;;;;9.70;9.20;;;7.30;99.90;;;;;;4911826;29;20216;-81
2023/01/09 03:53:16;;;;;;;9.67;9.17;;;7.30;99.90;;;;;;4903703;29;20285;-81
2023/01/09 03:55:45;;;;;;;10.07;9.47;;;7.30;99.90;;;;;;4905546;29;20208;-81
2023/01/09 03:58:12;;;;;;;9.60;9.10;;;7.30;99.90;;;;;;4902458;29;20222;-82
2023/01/09 04:00:40;;;;;;;10.47;9.97;;;7.20;99.90;;;;;;4896221;29;20356;-83
2023/01/09 04:03:07;;;;;;;10.00;9.50;;;7.20;99.90;;;;;;4907800;29;20205;-81
2023/01/09 04:05:36;;;;;;;10.10;9.60;;;7.20;99.90;;;;;;4909170;29;20278;-83
2023/01/09 04:08:02;;;;;;;10.47;9.97;;;7.10;99.90;;;;;;4912853;29;20208;-81
2023/01/09 04:10:29;;;;;;;10.70;10.20;;;7.10;99.90;;;;;;4901820;29;20666;-81
2023/01/09 04:12:56;;;;;;;10.77;10.17;;;7.10;99.90;;;;;;4909167;29;20213;-80
2023/01/09 04:15:24;;;;;;;11.23;10.63;;;7.10;99.90;;;;;;4907279;29;20695;-80
2023/01/09 04:17:51;;;;;;;10.30;9.80;;;7.10;99.90;;;;;;4910801;29;20302;-83
2023/01/09 04:20:18;;;;;;;10.70;10.10;;;7.10;99.90;;;;;;4914574;29;20205;-83
2023/01/09 04:22:46;;;;;;;10.40;9.90;;;7.10;99.90;;;;;;4913212;29;20254;-80
2023/01/09 04:25:13;;;;;;;10.53;10.03;;;7.00;99.90;;;;;;4909198;29;20289;-81
2023/01/09 04:27:40;;;;;;;10.70;10.20;;;7.10;99.90;;;;;;4903148;29;20207;-81
2023/01/09 04:30:08;;;;;;;11.03;10.43;;;7.10;99.90;;;;;;4899424;29;20217;-81
2023/01/09 04:32:35;;;;;;;10.53;9.93;;;7.10;99.90;;;;;;4914575;29;20229;-81
2023/01/09 04:35:02;;;;;;;10.90;10.30;;;7.10;99.90;;;;;;4911192;29;20225;-81
2023/01/09 04:37:28;;;;;;;11.00;10.40;;;7.10;99.90;;;;;;4918197;29;20216;-81
2023/01/09 04:39:57;;;;;;;11.00;10.40;;;7.10;99.90;;;;;;4910929;29;20199;-78
2023/01/09 04:42:24;;;;;;;10.63;10.13;;;7.00;99.90;;;;;;4910542;29;20637;-78
2023/01/09 04:44:52;;;;;;;10.80;10.30;;;7.00;99.90;;;;;;4909576;29;20285;-78
2023/01/09 04:47:20;;;;;;;11.30;10.60;;;7.00;99.90;;;;;;4903269;29;20287;-77
2023/01/09 04:49:46;;;;;;;11.27;10.67;;;7.00;99.90;;;;;;4910898;29;20254;-77
2023/01/09 04:52:13;;;;;;;11.50;10.90;;;7.00;99.90;;;;;;4908931;29;20221;-78
2023/01/09 04:54:40;;;;;;;11.30;10.70;;;6.90;99.90;;;;;;4911030;29;20645;-77
2023/01/09 04:57:08;;;;;;;11.33;10.73;;;6.90;99.90;;;;;;4909552;29;20227;-78
2023/01/09 04:59:35;;;;;;;11.90;11.30;;;6.80;99.90;;;;;;4910010;29;20240;-78
2023/01/09 05:02:02;;;;;;;11.70;11.10;;;6.80;99.90;;;;;;4908294;29;20251;-77
2023/01/09 05:04:29;;;;;;;11.37;10.77;;;6.80;99.90;;;;;;4913574;29;20724;-78
2023/01/09 05:06:56;;;;;;;11.90;11.30;;;6.70;99.90;;;;;;4905650;29;20196;-80
2023/01/09 05:09:23;;;;;;;12.30;11.70;;;6.60;99.90;;;;;;4927807;29;20229;-77
2023/01/09 05:11:50;;;;;;;12.50;11.90;;;6.50;99.90;;;;;;4905374;29;20310;-78
2023/01/09 05:14:18;;;;;;;12.50;11.90;;;6.50;99.90;;;;;;4909926;29;20207;-80
2023/01/09 05:16:45;;;;;;;12.43;11.83;;;6.40;99.90;;;;;;4909479;29;20241;-79
2023/01/09 05:19:12;;;;;;;12.80;12.20;;;6.40;99.90;;;;;;4911327;29;20722;-79
2023/01/09 05:21:39;;;;;;;12.37;11.77;;;6.30;99.90;;;;;;4908998;29;20231;-79
2023/01/09 05:24:06;;;;;;;12.80;12.20;;;6.20;99.90;;;;;;4909713;29;20240;-78
2023/01/09 05:26:33;;;;;;;12.57;11.97;;;6.10;99.90;;;;;;4905578;29;20206;-77
2023/01/09 05:28:59;;;;;;;12.80;12.10;;;6.00;99.90;;;;;;4902550;29;20210;-79
2023/01/09 05:31:28;;;;;;;12.93;12.20;;;6.00;99.90;;;;;;4912706;29;20226;-78
2023/01/09 05:33:58;;;;;;;12.87;12.17;;;6.00;99.90;;;;;;4908626;29;20202;-78
2023/01/09 05:36:25;;;;;;;12.67;12.07;;;6.00;99.90;;;;;;4912208;29;20214;-79
2023/01/09 05:38:51;;;;;;;12.70;12.10;;;5.90;99.90;;;;;;4909214;29;20674;-78
2023/01/09 05:41:18;;;;;;;13.00;12.20;;;5.90;99.90;;;;;;4908769;29;20235;-80
2023/01/09 05:43:45;;;;;;;12.83;12.13;;;5.80;99.90;;;;;;4904518;29;20236;-79
2023/01/09 05:46:12;;;;;;;13.10;12.30;;;5.80;99.90;;;;;;4908852;29;20204;-80
2023/01/09 05:48:40;;;;;;;12.67;11.97;;;5.80;99.90;;;;;;4908938;29;20202;-78
2023/01/09 05:51:07;;;;;;;12.47;11.87;;;5.70;99.90;;;;;;4907683;29;20307;-79
2023/01/09 05:53:34;;;;;;;12.90;12.10;;;5.70;99.90;;;;;;4905581;29;20209;-79
2023/01/09 05:56:00;;;;;;;12.67;12.07;;;5.70;99.90;;;;;;4912570;29;20272;-79
2023/01/09 05:58:27;;;;;;;12.90;12.23;;;5.60;99.90;;;;;;4913869;29;20224;-78
2023/01/09 06:00:54;;;;;;;13.10;12.40;;;5.60;99.90;;;;;;4909618;29;20228;-79
2023/01/09 06:03:21;;;;;;;12.57;11.97;;;5.70;99.90;;;;;;4909202;29;20225;-78
2023/01/09 06:05:50;;;;;;;12.50;11.90;;;5.70;99.90;;;;;;4909605;29;20264;-77
2023/01/09 06:08:17;;;;;;;12.67;12.07;;;5.70;99.90;;;;;;4908073;29;20230;-78
2023/01/09 06:10:45;;;;;;;12.60;12.00;;;5.70;99.90;;;;;;4900418;29;20654;-79
2023/01/09 06:13:12;;;;;;;12.53;11.90;;;5.80;99.90;;;;;;4903479;29;20249;-77
2023/01/09 06:15:38;;;;;;;12.57;11.97;;;5.80;99.90;;;;;;4899884;29;20197;-78
2023/01/09 06:18:05;;;;;;;12.43;11.83;;;5.80;99.90;;;;;;4902394;29;20224;-77
2023/01/09 06:20:33;;;;;;;12.53;11.93;;;5.80;99.90;;;;;;4901193;29;20200;-80
2023/01/09 06:23:01;;;;;;;12.33;11.73;;;5.80;99.90;;;;;;4902108;29;20209;-78
2023/01/09 06:25:27;;;;;;;12.70;12.10;;;5.80;99.90;;;;;;4915585;29;20200;-78
2023/01/09 06:27:54;;;;;;;12.50;11.90;;;5.70;99.90;;;;;;4902173;29;20197;-79
2023/01/09 06:30:21;;;;;;;13.30;12.57;;;5.70;99.90;;;;;;4902477;29;20260;-79
2023/01/09 06:32:49;;;;;;;12.30;11.63;;;5.70;99.90;;;;;;4900875;29;20229;-79
2023/01/09 06:35:19;;;;;;;12.47;11.77;;;5.60;99.90;;;;;;4901678;29;20259;-78
2023/01/09 06:37:46;;;;;;;12.77;12.03;;;5.50;99.90;;;;;;4901137;29;20728;-78
2023/01/09 06:40:15;;;;;;;12.40;11.70;;;5.40;99.90;;;;;;4901856;29;20201;-78
2023/01/09 06:42:45;;;;;;;13.03;12.33;;;5.40;99.90;;;;;;4901371;29;20227;-78
2023/01/09 06:45:12;;;;;;;13.27;12.57;;;5.30;99.90;;;;;;4902889;29;20204;-78
2023/01/09 06:47:39;;;;;;;12.17;11.57;;;5.30;99.90;;;;;;4901745;29;20193;-78
2023/01/09 06:50:08;;;;;;;12.23;11.63;;;5.20;99.90;;;;;;4902327;29;20288;-78
2023/01/09 06:52:35;;;;;;;12.37;11.73;;;5.20;99.90;;;;;;4903641;29;20307;-79
2023/01/09 06:55:02;;;;;;;13.40;12.40;;;5.20;99.90;;;;;;4902205;29;20212;-79
2023/01/09 06:57:30;;;;;;;12.63;12.00;;;5.20;99.90;;;;;;4915146;29;20315;-78
2023/01/09 06:59:57;;;;;;;13.53;12.60;;;5.20;99.90;;;;;;4901350;29;20757;-78
2023/01/09 07:02:24;;;;;;;13.10;12.40;;;5.20;99.90;;;;;;4901394;29;20296;-78
2023/01/09 07:04:51;;;;;;;13.40;12.40;;;5.20;99.90;;;;;;4902292;29;20218;-79
2023/01/09 07:07:18;;;;;;;12.50;11.80;;;5.30;99.90;;;;;;4902936;29;20188;-78
2023/01/09 07:09:45;;;;;;;12.40;11.70;;;5.30;99.90;;;;;;4899444;29;20661;-78
2023/01/09 07:12:13;;;;;;;12.27;11.67;;;5.40;99.90;;;;;;4903027;29;20299;-78
2023/01/09 07:14:41;;;;;;;12.43;11.73;;;5.40;99.90;;;;;;4900654;29;20271;-78
2023/01/09 07:17:09;;;;;;;12.37;11.77;;;5.40;99.90;;;;;;4903268;29;20227;-78
2023/01/09 07:19:36;;;;;;;12.23;11.63;;;5.40;99.90;;;;;;4898932;29;20197;-79
2023/01/09 07:22:03;;;;;;;12.67;11.87;;;5.50;99.90;;;;;;4902938;29;20233;-79
2023/01/09 07:24:30;;;;;;;12.30;11.50;;;5.50;99.90;;;;;;4903089;29;20670;-79
2023/01/09 07:26:56;;;;;;;11.90;11.30;;;5.50;99.90;;;;;;4899030;29;20196;-79
2023/01/09 07:29:23;;;;;;;12.30;11.60;;;5.50;99.90;;;;;;4902286;29;20192;-77
2023/01/09 07:31:51;;;;;;;12.53;11.43;;;5.50;99.90;;;;;;4900645;29;20698;-79
2023/01/09 07:34:18;;;;;;;12.00;11.20;;;5.50;99.90;;;;;;4901873;29;20289;-79
2023/01/09 07:36:47;;;;;;;12.57;11.87;;;5.60;99.90;;;;;;4901469;29;20730;-79
2023/01/09 07:39:14;;;;;;;12.10;11.30;;;5.60;99.90;;;;;;4903892;29;20298;-79
2023/01/09 07:41:41;;;;;;;11.70;10.90;;;5.60;99.90;;;;;;4902273;29;20285;-79
2023/01/09 07:44:10;;;;;;;11.43;10.73;;;5.60;99.90;;;;;;4901707;29;20216;-79
2023/01/09 07:46:37;;;;;;;11.47;10.87;;;5.70;99.90;;;;;;4900058;29;20700;-79
2023/01/09 07:49:05;;;;;;;11.43;10.80;;;5.70;99.90;;;;;;4905749;29;20206;-79
2023/01/09 07:51:32;;;;;;;11.70;11.00;;;5.70;99.90;;;;;;4904525;29;20228;-79
2023/01/09 07:53:59;;;;;;;11.40;10.70;;;5.80;99.90;;;;;;4906022;29;20239;-79
2023/01/09 07:56:26;;;;;;;11.37;10.67;;;5.80;99.90;;;;;;4906031;29;20201;-78
2023/01/09 07:58:53;;;;;;;11.37;10.77;;;5.80;99.90;;;;;;4904326;29;20225;-79
2023/01/09 08:01:19;;;;;;;11.90;11.13;;;5.80;99.90;;;;;;4904723;29;20236;-79
2023/01/09 08:03:46;;;;;;;12.47;11.67;;;5.70;99.90;;;;;;4903075;29;20210;-79
2023/01/09 08:06:14;;;;;;;12.00;11.30;;;5.70;99.90;;;;;;4908165;29;20232;-81
2023/01/09 08:08:41;;;;;;;12.13;11.40;;;5.60;99.90;;;;;;4905060;29;20190;-81
2023/01/09 08:11:09;;;;;;;12.33;11.63;;;5.70;99.90;;;;;;4904704;29;20237;-79
2023/01/09 08:13:36;;;;;;;12.20;11.50;;;5.80;99.90;;;;;;4904265;29;20212;-78
2023/01/09 08:16:02;;;;;;;12.07;11.47;;;5.80;99.90;;;;;;4900269;29;20232;-78
2023/01/09 08:18:29;;;;;;;12.50;11.80;;;5.80;99.90;;;;;;4905252;29;20216;-78
2023/01/09 08:20:56;;;;;;;12.30;11.60;;;5.90;99.90;;;;;;4903003;29;20226;-77
2023/01/09 08:23:24;;;;;;;12.70;11.93;;;5.90;99.90;;;;;;4905514;29;20196;-78
2023/01/09 08:25:53;;;;;;;12.50;11.70;;;5.90;99.90;;;;;;4910937;29;20201;-77
2023/01/09 08:28:20;;;;;;;12.53;11.60;;;5.90;99.90;;;;;;4912616;29;20276;-79
2023/01/09 08:30:47;;;;;;;12.50;11.70;;;5.90;99.90;;;;;;4908303;29;20306;-78
2023/01/09 08:33:14;;;;;;;12.33;11.63;;;5.90;99.90;;;;;;4912200;29;20694;-79
2023/01/09 08:35:42;;;;;;;12.63;11.73;;;6.10;99.90;;;;;;4904086;29;20682;-80
2023/01/09 08:38:09;;;;;;;12.03;11.30;;;6.10;99.90;;;;;;4904649;29;20242;-79
2023/01/09 08:40:37;;;;;;;12.13;11.33;;;6.10;99.90;;;;;;4915669;29;20217;-80
2023/01/09 08:48:38;;;;;;;12.07;11.27;;;6.10;99.90;;;;;;4903668;29;20195;-79
2023/01/09 08:51:05;;;;;;;12.30;11.60;;;6.30;99.90;;;;;;4910505;29;20317;-79
2023/01/09 08:53:32;;;;;;;12.47;11.67;;;6.30;99.90;;;;;;4907253;29;20210;-80
2023/01/09 08:56:00;;;;;;;11.80;11.00;;;6.30;99.90;;;;;;4902398;29;20206;-79
2023/01/09 08:58:30;;;;;;;11.70;10.90;;;6.30;99.90;;;;;;4897215;29;20233;-79
2023/01/09 09:00:58;;;;;;;11.70;11.00;;;6.30;99.90;;;;;;4878556;29;1101877;-78
2023/01/09 09:03:25;;;;;;;11.90;11.10;;;6.30;99.90;;;;;;4909240;29;20208;-79
2023/01/09 09:05:51;;;;;;;11.83;11.13;;;6.40;99.90;;;;;;4912364;29;20634;-78
2023/01/09 09:08:19;;;;;;;12.23;11.43;;;6.40;99.90;;;;;;4909302;29;20201;-79
2023/01/09 09:10:46;;;;;;;11.93;11.13;;;6.50;99.90;;;;;;4906398;29;20309;-78
2023/01/09 09:13:14;;;;;;;12.13;11.33;;;6.60;99.90;;;;;;4913630;29;20215;-79
2023/01/09 09:15:40;;;;;;;11.60;10.90;;;6.80;99.90;;;;;;4907767;29;20281;-79
2023/01/09 09:18:08;;;;;;;10.17;9.37;;;6.90;99.90;;;;;;4908679;29;20774;-79
2023/01/09 09:20:36;;;;;;;11.30;10.60;;;7.00;99.90;;;;;;4912065;29;20207;-79
2023/01/09 09:23:03;;;;;;;10.60;9.90;;;7.10;99.90;;;;;;4907796;29;20286;-79
2023/01/09 09:25:30;;;;;;;11.50;10.90;;;7.20;99.90;;;;;;4911198;29;20211;-79
2023/01/09 09:27:59;;;;;;;5.00;4.60;;;7.30;99.90;;;;;;4910504;29;20203;-78
2023/01/09 09:30:27;;;;;;;9.80;9.10;;;7.40;99.90;;;;;;4908649;29;20305;-78
2023/01/09 09:32:54;;;;;;;11.33;10.20;;;7.40;99.90;;;;;;4910711;29;20207;-79
2023/01/09 09:35:22;;;;;;;11.20;10.40;;;7.50;99.90;;;;;;4909243;29;20652;-79
2023/01/09 09:37:56;;;;;;;12.20;11.50;;;7.60;99.90;;;;;;4909533;29;20207;-78
2023/01/09 09:40:38;;;;;;;11.97;10.97;;;7.70;99.90;;;;;;4905905;29;20212;-79
2023/01/09 09:46:26;;;;;;;11.40;10.60;;;7.80;99.90;;;;;;4908559;29;20697;-77
2023/01/09 09:48:56;;;;;;;10.80;10.20;;;7.90;99.90;;;;;;4905359;29;20197;-79
2023/01/09 09:51:35;;;;;;;10.60;9.90;;;8.10;99.90;;;;;;4906853;29;20704;-78
2023/01/09 09:54:07;;;;;;;10.90;10.10;;;8.20;99.90;;;;;;4907506;29;20201;-78
2023/01/09 09:56:41;;;;;;;11.17;10.37;;;8.40;99.90;;;;;;4900791;29;20670;-78
2023/01/09 09:59:13;;;;;;;10.60;10.00;;;8.50;99.90;;;;;;4906278;29;20227;-79
2023/01/09 10:01:47;;;;;;;10.90;10.20;;;8.60;99.90;;;;;;4909133;29;20712;-79
2023/01/09 10:04:17;;;;;;;11.40;10.40;;;8.70;99.90;;;;;;4907402;29;20203;-78
2023/01/09 10:06:47;;;;;;;11.03;10.33;;;8.70;99.90;;;;;;4911228;29;20208;-78
2023/01/09 10:09:23;;;;;;;11.40;10.60;;;8.80;99.90;;;;;;4907542;29;20569;-78
2023/01/09 10:11:54;;;;;;;11.00;10.30;;;8.80;99.90;;;;;;4892148;29;20241;-79
2023/01/09 10:14:22;;;;;;;11.30;10.60;;;8.90;99.90;;;;;;4906006;29;20212;-79
2023/01/09 10:17:20;;;;;;;11.67;10.97;;;9.00;99.90;;;;;;4906578;29;20204;-79
2023/01/09 10:20:05;;;;;;;12.23;11.33;;;9.10;99.90;;;;;;4899395;29;20236;-79
2023/01/09 10:22:40;;;;;;;12.10;11.30;;;9.10;99.90;;;;;;4894897;29;20275;-78
2023/01/09 10:25:18;;;;;;;12.47;11.67;;;9.10;99.90;;;;;;4902830;29;20208;-80
2023/01/09 10:28:11;;;;;;;10.90;10.20;;;9.00;99.90;;;;;;4910394;29;20199;-79
2023/01/09 10:30:43;;;;;;;11.37;10.40;;;9.00;99.90;;;;;;4892861;29;20231;-79
2023/01/09 10:33:26;;;;;;;11.20;10.53;;;9.10;99.90;;;;;;4907607;29;20213;-79
2023/01/09 10:36:18;;;;;;;10.60;9.90;;;9.10;99.90;;;;;;4907642;29;20196;-79
2023/01/09 10:38:49;;;;;;;10.10;9.40;;;9.20;99.90;;;;;;4907440;29;20223;-78
2023/01/09 10:41:22;;;;;;;10.13;9.50;;;9.20;99.90;;;;;;4907617;29;20349;-79
2023/01/09 10:43:54;;;;;;;10.43;9.73;;;9.20;99.90;;;;;;4910615;29;20204;-79
2023/01/09 10:46:25;;;;;;;10.80;9.90;;;9.20;99.90;;;;;;4906536;29;20211;-80
2023/01/09 10:48:59;;;;;;;10.57;9.83;;;9.10;99.90;;;;;;4901903;29;20272;-80
2023/01/09 10:51:32;;;;;;;10.37;9.67;;;9.10;99.90;;;;;;4909704;29;20713;-80
2023/01/09 10:53:59;;;;;;;10.83;10.00;;;9.00;99.90;;;;;;4907669;29;20732;-80
2023/01/09 10:56:27;;;;;;;10.47;9.60;;;9.00;99.90;;;;;;4903693;29;20294;-80
2023/01/09 10:58:55;;;;;;;10.33;9.60;;;9.00;99.90;;;;;;4904272;29;20216;-80
2023/01/09 11:01:26;;;;;;;10.33;9.53;;;9.00;99.90;;;;;;4906474;29;20307;-80
2023/01/09 11:03:57;;;;;;;9.97;9.33;;;9.00;99.90;;;;;;4906485;29;20621;-80
2023/01/09 11:06:37;;;;;;;10.27;9.67;;;9.00;99.90;;;;;;4906266;29;20205;-80
2023/01/09 11:09:05;;;;;;;10.50;9.70;;;8.90;99.90;;;;;;4901211;29;20200;-79
2023/01/09 11:11:34;;;;;;;10.87;10.17;;;8.90;99.90;;;;;;4899026;29;20230;-79
2023/01/09 11:14:07;;;;;;;10.73;10.03;;;8.90;99.90;;;;;;4899387;29;20264;-79
2023/01/09 11:16:34;;;;;;;10.93;10.13;;;8.90;99.90;;;;;;4898790;29;20693;-79
2023/01/09 11:19:03;;;;;;;11.47;10.53;;;8.90;99.90;;;;;;4887115;29;20216;-79
2023/01/09 11:21:34;;;;;;;10.87;10.17;;;8.80;99.90;;;;;;4877939;29;20225;-79
2023/01/09 11:24:28;;;;;;;11.23;10.53;;;8.80;99.90;;;;;;4882158;29;20283;-79
2023/01/09 11:27:26;;;;;;;10.97;10.00;;;8.70;99.90;;;;;;4883813;29;20205;-79
2023/01/09 11:30:15;;;;;;;10.87;10.17;;;8.70;99.90;;;;;;4881894;29;20209;-79
2023/01/09 11:32:44;;;;;;;10.43;9.70;;;8.70;99.90;;;;;;4898562;29;20252;-79
2023/01/09 11:35:20;;;;;;;10.50;9.80;;;8.90;99.90;;;;;;4884627;29;20289;-81
2023/01/09 11:37:50;;;;;;;11.30;10.47;;;9.00;99.90;;;;;;4896161;29;20235;-81
2023/01/09 11:40:19;;;;;;;10.83;10.03;;;9.10;99.90;;;;;;4896530;29;20221;-81
2023/01/09 11:43:05;;;;;;;11.30;10.50;;;9.30;99.90;;;;;;4896358;29;20320;-81
2023/01/09 11:45:34;;;;;;;11.60;10.70;;;9.50;99.90;;;;;;4892760;29;20223;-81
2023/01/09 11:48:03;;;;;;;11.80;11.00;;;9.60;99.90;;;;;;4905091;29;20281;-81
2023/01/09 11:50:31;;;;;;;7.72;7.03;;;9.60;99.90;;;;;;4896425;29;20453;-81
2023/01/09 11:53:16;;;;;;;7.40;6.80;;;9.70;99.90;;;;;;4907720;29;20313;-81
2023/01/09 11:55:45;;;;;;;11.03;10.27;;;9.70;99.90;;;;;;4912166;29;20209;-81
2023/01/09 11:58:15;;;;;;;9.23;8.52;;;9.80;99.90;;;;;;4913139;29;20494;-80
2023/01/09 12:00:54;;;;;;;10.97;10.33;;;9.80;99.90;;;;;;4909711;29;20216;-80
2023/01/09 12:03:37;;;;;;;11.27;10.55;;;9.80;99.90;;;;;;4914222;29;20495;-81
2023/01/09 12:06:14;;;;;;;10.73;9.87;;;9.80;99.90;;;;;;4905425;29;20209;-82
2023/01/09 12:08:53;;;;;;;10.60;9.90;;;9.80;99.90;;;;;;4916520;29;20200;-81
2023/01/09 12:11:27;;;;;;;10.97;10.27;;;9.80;99.90;;;;;;4908738;29;20248;-82
2023/01/09 12:14:09;;;;;;;10.40;9.60;;;9.80;99.90;;;;;;4910330;29;20252;-80
2023/01/09 12:16:41;;;;;;;10.63;9.93;;;9.60;99.90;;;;;;4907297;29;20200;-82
2023/01/09 12:19:24;;;;;;;10.90;10.00;;;9.60;99.90;;;;;;4901391;29;20217;-80
2023/01/09 12:22:01;;;;;;;10.80;10.10;;;9.60;99.90;;;;;;4899763;29;20221;-83
2023/01/09 12:24:54;;;;;;;11.03;10.17;;;9.60;99.90;;;;;;4902229;29;20259;-80
2023/01/09 12:27:33;;;;;;;10.90;10.13;;;9.60;99.90;;;;;;4900373;29;20219;-81
2023/01/09 12:30:15;;;;;;;10.40;9.70;;;9.50;99.90;;;;;;4889578;29;20201;-82
2023/01/09 12:32:53;;;;;;;10.57;9.77;;;9.50;99.90;;;;;;4895135;29;20724;-79
2023/01/09 12:35:30;;;;;;;10.30;9.70;;;9.50;99.90;;;;;;4907445;29;20584;-80
2023/01/09 12:38:21;;;;;;;10.03;9.43;;;9.50;99.90;;;;;;4909191;29;20192;-80
2023/01/09 12:41:14;;;;;;;10.60;9.70;;;9.50;99.90;;;;;;4904361;29;20227;-79
2023/01/09 12:43:52;;;;;;;10.57;9.63;;;9.60;99.90;;;;;;4902735;29;20763;-79
2023/01/09 12:46:20;;;;;;;10.13;9.43;;;9.50;99.90;;;;;;4911645;29;20366;-80
2023/01/09 12:49:04;;;;;;;10.17;9.30;;;9.40;99.90;;;;;;4902811;29;20219;-79
2023/01/09 12:51:37;;;;;;;9.47;8.87;;;9.40;99.90;;;;;;4896602;29;20895;-80
2023/01/09 12:54:10;;;;;;;10.00;9.30;;;9.30;99.90;;;;;;4906459;29;20681;-80
2023/01/09 12:56:41;;;;;;;9.90;9.30;;;9.40;99.90;;;;;;4904859;29;20200;-80
2023/01/09 12:59:29;;;;;;;9.70;9.10;;;9.40;99.90;;;;;;4905156;29;20228;-78
2023/01/09 13:02:03;;;;;;;9.30;8.80;;;9.40;99.90;;;;;;4907303;29;20700;-80
2023/01/09 13:04:34;;;;;;;10.07;9.30;;;9.40;99.90;;;;;;4893459;29;20269;-78
2023/01/09 13:07:04;;;;;;;9.50;8.90;;;9.40;99.90;;;;;;4912876;29;20738;-79
2023/01/09 13:09:41;;;;;;;9.30;8.70;;;9.40;99.90;;;;;;4904484;29;20244;-80
2023/01/09 13:12:12;;;;;;;9.70;9.00;;;9.40;99.90;;;;;;4906681;29;20216;-79
2023/01/09 13:14:47;;;;;;;9.93;9.13;;;9.40;99.90;;;;;;4912225;29;20272;-80
2023/01/09 13:17:19;;;;;;;9.30;8.80;;;9.50;99.90;;;;;;4908262;29;20214;-81
2023/01/09 13:19:46;;;;;;;9.90;9.20;;;9.40;99.90;;;;;;4908592;29;20216;-80
2023/01/09 13:22:14;;;;;;;9.37;8.77;;;9.30;99.90;;;;;;4909201;29;20705;-81
2023/01/09 13:24:56;;;;;;;10.00;9.30;;;9.30;99.90;;;;;;4907599;29;20208;-80
2023/01/09 13:27:26;;;;;;;10.03;9.23;;;9.20;99.90;;;;;;4909287;29;20211;-79
2023/01/09 13:30:07;;;;;;;9.83;9.23;;;9.10;99.90;;;;;;4905829;29;20200;-79
2023/01/09 13:32:42;;;;;;;9.27;8.77;;;9.00;99.90;;;;;;4897132;29;20227;-80
2023/01/09 13:35:12;;;;;;;9.50;9.00;;;8.90;99.90;;;;;;4910858;29;20207;-80
2023/01/09 13:37:39;;;;;;;9.80;9.10;;;8.80;99.90;;;;;;4908546;29;20199;-80
2023/01/09 13:40:26;;;;;;;10.10;9.50;;;8.80;99.90;;;;;;4905870;29;20657;-81
2023/01/09 13:42:56;;;;;;;9.60;9.00;;;8.80;99.90;;;;;;4903237;29;20456;-81
2023/01/09 13:45:25;;;;;;;9.57;8.97;;;8.70;99.90;;;;;;4907644;29;20200;-81
2023/01/09 13:48:31;;;;;;;9.20;8.70;;;8.70;99.90;;;;;;4905994;29;20205;-81
2023/01/09 13:51:49;;;;;;;9.97;9.17;;;8.70;99.90;;;;;;4896546;29;20648;-80
2023/01/09 13:54:57;;;;;;;8.80;8.30;;;8.70;99.90;;;;;;4909277;29;20263;-81
2023/01/09 13:57:29;;;;;;;9.70;9.20;;;8.70;99.90;;;;;;4907922;29;20209;-81
2023/01/09 13:59:59;;;;;;;9.00;8.50;;;8.70;99.90;;;;;;4902149;29;20224;-79
2023/01/09 14:02:57;;;;;;;9.30;8.70;;;8.60;99.90;;;;;;4910811;29;20231;-81
2023/01/09 14:06:01;;;;;;;9.97;9.27;;;8.50;99.90;;;;;;4910136;29;20709;-80
2023/01/09 14:08:30;;;;;;;9.97;9.40;;;8.40;99.90;;;;;;4909927;29;20203;-82
2023/01/09 14:10:59;;;;;;;10.90;10.30;;;8.20;99.90;;;;;;4909479;29;20581;-82
2023/01/09 14:13:30;;;;;;;10.50;9.90;;;8.10;99.90;;;;;;4906724;29;20681;-82
2023/01/09 14:16:05;;;;;;;10.87;10.27;;;8.10;99.90;;;;;;4912932;29;20243;-81
2023/01/09 14:18:34;;;;;;;10.60;10.10;;;8.10;99.90;;;;;;4905494;29;20211;-81
2023/01/09 14:21:03;;;;;;;11.00;10.40;;;8.00;99.90;;;;;;4911405;29;20458;-83
2023/01/09 14:23:33;;;;;;;10.50;9.90;;;7.90;99.90;;;;;;4904105;29;20272;-81
2023/01/09 14:26:01;;;;;;;10.90;10.20;;;7.80;99.90;;;;;;4913906;29;20251;-81
2023/01/09 14:28:30;;;;;;;10.60;10.00;;;7.70;99.90;;;;;;4900519;29;20287;-81
2023/01/09 14:31:06;;;;;;;10.27;9.77;;;7.60;99.90;;;;;;4908169;29;20274;-81
2023/01/09 14:33:34;;;;;;;9.30;8.80;;;7.50;99.90;;;;;;4897615;29;20292;-82
2023/01/09 14:36:09;;;;;;;9.30;8.80;;;7.40;99.90;;;;;;4896686;29;20205;-80
2023/01/09 14:38:41;;;;;;;9.90;9.40;;;7.40;99.90;;;;;;4902424;29;20226;-80
2023/01/09 14:41:19;;;;;;;10.00;9.30;;;7.40;99.90;;;;;;4912711;29;20315;-79
2023/01/09 14:43:54;;;;;;;9.60;9.10;;;7.40;99.90;;;;;;4899329;29;20206;-79
2023/01/09 14:46:22;;;;;;;10.87;10.20;;;7.20;99.90;;;;;;4909638;29;20217;-78
2023/01/09 14:49:12;;;;;;;9.70;9.10;;;7.20;99.90;;;;;;4909419;29;20251;-78
2023/01/09 14:51:44;;;;;;;10.43;9.80;;;7.10;99.90;;;;;;4901059;29;20211;-77
2023/01/09 14:54:24;;;;;;;10.37;9.77;;;7.00;99.90;;;;;;4906586;29;20635;-78
2023/01/09 14:56:51;;;;;;;10.60;10.00;;;7.00;99.90;;;;;;4910277;29;20208;-78
2023/01/09 14:59:19;;;;;;;10.87;10.13;;;7.00;99.90;;;;;;4915780;29;20236;-79
2023/01/09 15:01:50;;;;;;;10.70;10.10;;;6.90;99.90;;;;;;4917349;29;20380;-79
2023/01/09 15:04:25;;;;;;;10.53;9.93;;;6.90;99.90;;;;;;4915953;29;20200;-77
2023/01/09 15:06:52;;;;;;;10.63;10.07;;;6.90;99.90;;;;;;4915933;29;20218;-79
2023/01/09 15:09:24;;;;;;;11.20;10.30;;;7.00;99.90;;;;;;4915540;29;20746;-79
2023/01/09 15:11:53;;;;;;;10.60;10.00;;;6.90;99.90;;;;;;4916300;29;20317;-80
2023/01/09 15:14:29;;;;;;;10.77;10.17;;;6.90;99.90;;;;;;4915738;29;20207;-78
2023/01/09 15:16:57;;;;;;;11.13;10.33;;;6.90;99.90;;;;;;4917019;29;20267;-77
2023/01/09 15:19:24;;;;;;;10.87;10.27;;;6.90;99.90;;;;;;4914758;29;20261;-77
2023/01/09 15:21:59;;;;;;;11.00;10.40;;;6.90;99.90;;;;;;4915936;29;20225;-77
2023/01/09 15:24:28;;;;;;;11.10;10.40;;;6.90;99.90;;;;;;4914610;29;20253;-77
2023/01/09 15:26:57;;;;;;;11.13;10.47;;;6.90;99.90;;;;;;4916449;29;20258;-79
2023/01/09 15:29:27;;;;;;;11.43;10.63;;;6.90;99.90;;;;;;4913817;29;20210;-76
2023/01/09 15:31:56;;;;;;;12.37;11.67;;;6.90;99.90;;;;;;4916155;29;20219;-79
2023/01/09 15:34:25;;;;;;;12.10;11.40;;;6.90;99.90;;;;;;4916312;29;20203;-79
2023/01/09 15:36:52;;;;;;;12.10;11.40;;;6.70;99.90;;;;;;4912367;29;20208;-79
2023/01/09 15:39:23;;;;;;;12.00;11.30;;;6.60;99.90;;;;;;4920863;29;20206;-78
2023/01/09 15:44:39;;;;;;;12.27;11.37;;;6.50;99.90;;;;;;4906843;29;20261;-77
2023/01/09 15:47:08;;;;;;;11.90;11.23;;;6.40;99.90;;;;;;4890136;29;20232;-76
2023/01/09 15:49:36;;;;;;;11.80;11.10;;;6.30;99.90;;;;;;4889899;29;20561;-76
2023/01/09 15:52:03;;;;;;;11.87;11.20;;;6.20;99.90;;;;;;4899160;29;20234;-77
2023/01/09 15:54:32;;;;;;;12.10;11.30;;;6.20;99.90;;;;;;4909047;29;20202;-77
2023/01/09 15:57:29;;;;;;;12.03;11.33;;;6.10;99.90;;;;;;4891034;29;20769;-77
2023/01/09 16:00:17;;;;;;;11.60;10.90;;;6.00;99.90;;;;;;4886328;29;20610;-79
2023/01/09 16:05:32;;;;;;;11.93;11.23;;;6.00;99.90;;;;;;4899220;29;20201;-78
2023/01/09 16:08:00;;;;;;;11.60;10.90;;;6.00;99.90;;;;;;4912906;29;20230;-77
2023/01/09 16:10:33;;;;;;;11.63;10.93;;;6.00;99.90;;;;;;4901133;29;20229;-77
2023/01/09 16:13:01;;;;;;;11.70;11.00;;;5.90;99.90;;;;;;4911712;29;20205;-78
2023/01/09 16:15:32;;;;;;;12.17;11.37;;;5.90;99.90;;;;;;4900937;29;20205;-77
2023/01/09 16:18:07;;;;;;;12.70;11.00;;;5.90;99.90;;;;;;4912940;29;20725;-77